sensor_id;sensor_type;location;lat;lon;timestamp;temperature;humidity
75621;DHT22;64574;48.506;-2.750;2022-11-20T00:01:29;8.80;76.60
75621;DHT22;64574;48.506;-2.750;2022-11-20T00:03:56;8.80;77.00
75621;DHT22;64574;48.506;-2.750;2022-11-20T00:06:23;8.80;77.00
75621;DHT22;64574;48.506;-2.750;2022-11-20T00:08:49;8.80;77.00
75621;DHT22;64574;48.506;-2.750;2022-11-20T00:11:20;8.90;77.10
75621;DHT22;64574;48.506;-2.750;2022-11-20T00:13:49;8.80;77.20
75621;DHT22;64574;48.506;-2.750;2022-11-20T00:16:17;8.80;77.20
75621;DHT22;64574;48.506;-2.750;2022-11-20T00:18:43;8.80;77.40
75621;DHT22;64574;48.506;-2.750;2022-11-20T00:21:14;8.80;77.50
75621;DHT22;64574;48.506;-2.750;2022-11-20T00:23:43;8.90;77.50
75621;DHT22;64574;48.506;-2.750;2022-11-20T00:26:10;8.90;77.50
75621;DHT22;64574;48.506;-2.750;2022-11-20T00:28:37;8.90;77.90
75621;DHT22;64574;48.506;-2.750;2022-11-20T00:31:10;8.90;77.80
75621;DHT22;64574;48.506;-2.750;2022-11-20T00:33:36;9.00;77.90
75621;DHT22;64574;48.506;-2.750;2022-11-20T00:36:09;9.00;78.00
75621;DHT22;64574;48.506;-2.750;2022-11-20T00:38:35;8.90;78.40
75621;DHT22;64574;48.506;-2.750;2022-11-20T00:41:04;8.90;78.50
75621;DHT22;64574;48.506;-2.750;2022-11-20T00:43:29;8.90;78.90
75621;DHT22;64574;48.506;-2.750;2022-11-20T00:46:05;8.90;78.80
75621;DHT22;64574;48.506;-2.750;2022-11-20T00:48:31;8.90;78.80
75621;DHT22;64574;48.506;-2.750;2022-11-20T00:51:00;8.90;78.90
75621;DHT22;64574;48.506;-2.750;2022-11-20T00:53:26;8.90;79.00
75621;DHT22;64574;48.506;-2.750;2022-11-20T00:55:57;8.90;78.90
75621;DHT22;64574;48.506;-2.750;2022-11-20T00:58:24;8.80;79.00
75621;DHT22;64574;48.506;-2.750;2022-11-20T01:00:51;8.90;78.90
75621;DHT22;64574;48.506;-2.750;2022-11-20T01:03:17;9.00;78.80
75621;DHT22;64574;48.506;-2.750;2022-11-20T01:05:44;8.90;78.90
75621;DHT22;64574;48.506;-2.750;2022-11-20T01:08:09;8.90;78.90
75621;DHT22;64574;48.506;-2.750;2022-11-20T01:10:36;8.90;78.80
75621;DHT22;64574;48.506;-2.750;2022-11-20T01:13:02;9.00;78.90
75621;DHT22;64574;48.506;-2.750;2022-11-20T01:15:46;8.90;79.00
75621;DHT22;64574;48.506;-2.750;2022-11-20T01:18:11;8.90;79.10
75621;DHT22;64574;48.506;-2.750;2022-11-20T01:20:37;9.00;79.10
75621;DHT22;64574;48.506;-2.750;2022-11-20T01:23:03;9.00;79.10
75621;DHT22;64574;48.506;-2.750;2022-11-20T01:25:29;9.00;79.10
75621;DHT22;64574;48.506;-2.750;2022-11-20T01:27:55;8.90;79.30
75621;DHT22;64574;48.506;-2.750;2022-11-20T01:30:21;9.00;79.20
75621;DHT22;64574;48.506;-2.750;2022-11-20T01:32:46;9.00;79.40
75621;DHT22;64574;48.506;-2.750;2022-11-20T01:35:12;9.00;79.60
75621;DHT22;64574;48.506;-2.750;2022-11-20T01:37:38;9.00;79.80
75621;DHT22;64574;48.506;-2.750;2022-11-20T01:40:04;9.00;80.00
75621;DHT22;64574;48.506;-2.750;2022-11-20T01:42:29;9.00;80.00
75621;DHT22;64574;48.506;-2.750;2022-11-20T01:48:18;9.00;81.00
75621;DHT22;64574;48.506;-2.750;2022-11-20T01:50:45;8.90;81.20
75621;DHT22;64574;48.506;-2.750;2022-11-20T01:53:15;9.00;81.20
75621;DHT22;64574;48.506;-2.750;2022-11-20T01:55:49;9.00;81.20
75621;DHT22;64574;48.506;-2.750;2022-11-20T01:58:17;9.00;81.20
75621;DHT22;64574;48.506;-2.750;2022-11-20T02:00:44;9.00;81.10
75621;DHT22;64574;48.506;-2.750;2022-11-20T02:03:13;9.00;81.10
75621;DHT22;64574;48.506;-2.750;2022-11-20T02:05:49;9.00;81.40
75621;DHT22;64574;48.506;-2.750;2022-11-20T02:08:17;9.00;81.40
75621;DHT22;64574;48.506;-2.750;2022-11-20T02:10:44;8.90;81.60
75621;DHT22;64574;48.506;-2.750;2022-11-20T02:13:10;8.90;81.70
75621;DHT22;64574;48.506;-2.750;2022-11-20T02:15:54;8.90;81.70
75621;DHT22;64574;48.506;-2.750;2022-11-20T02:18:21;8.90;81.80
75621;DHT22;64574;48.506;-2.750;2022-11-20T02:20:50;8.80;81.90
75621;DHT22;64574;48.506;-2.750;2022-11-20T02:25:57;8.90;82.10
75621;DHT22;64574;48.506;-2.750;2022-11-20T02:28:23;8.90;82.20
75621;DHT22;64574;48.506;-2.750;2022-11-20T02:30:49;8.90;82.20
75621;DHT22;64574;48.506;-2.750;2022-11-20T02:33:15;8.90;82.20
75621;DHT22;64574;48.506;-2.750;2022-11-20T02:35:45;8.90;82.60
75621;DHT22;64574;48.506;-2.750;2022-11-20T02:38:13;8.90;82.60
75621;DHT22;64574;48.506;-2.750;2022-11-20T02:40:40;8.90;82.80
75621;DHT22;64574;48.506;-2.750;2022-11-20T02:43:05;8.90;83.00
75621;DHT22;64574;48.506;-2.750;2022-11-20T02:45:31;8.80;83.00
75621;DHT22;64574;48.506;-2.750;2022-11-20T02:47:57;8.90;83.50
75621;DHT22;64574;48.506;-2.750;2022-11-20T02:50:22;8.90;83.50
75621;DHT22;64574;48.506;-2.750;2022-11-20T02:52:48;8.90;83.70
75621;DHT22;64574;48.506;-2.750;2022-11-20T02:55:14;8.90;83.80
75621;DHT22;64574;48.506;-2.750;2022-11-20T02:57:39;8.80;84.00
75621;DHT22;64574;48.506;-2.750;2022-11-20T03:00:06;8.90;84.00
75621;DHT22;64574;48.506;-2.750;2022-11-20T03:02:32;8.90;84.10
75621;DHT22;64574;48.506;-2.750;2022-11-20T03:04:58;8.90;84.40
75621;DHT22;64574;48.506;-2.750;2022-11-20T03:07:24;8.90;84.50
75621;DHT22;64574;48.506;-2.750;2022-11-20T03:09:49;8.90;84.40
75621;DHT22;64574;48.506;-2.750;2022-11-20T03:12:15;8.90;84.50
75621;DHT22;64574;48.506;-2.750;2022-11-20T03:14:41;8.90;84.40
75621;DHT22;64574;48.506;-2.750;2022-11-20T03:17:06;9.00;84.50
75621;DHT22;64574;48.506;-2.750;2022-11-20T03:19:32;9.00;84.30
75621;DHT22;64574;48.506;-2.750;2022-11-20T03:21:58;9.00;84.30
75621;DHT22;64574;48.506;-2.750;2022-11-20T03:24:23;9.10;84.30
75621;DHT22;64574;48.506;-2.750;2022-11-20T03:26:49;9.10;84.20
75621;DHT22;64574;48.506;-2.750;2022-11-20T03:29:14;9.20;84.20
75621;DHT22;64574;48.506;-2.750;2022-11-20T03:31:41;9.20;84.20
75621;DHT22;64574;48.506;-2.750;2022-11-20T03:34:08;9.20;84.30
75621;DHT22;64574;48.506;-2.750;2022-11-20T03:36:34;9.20;84.20
75621;DHT22;64574;48.506;-2.750;2022-11-20T03:39:00;9.20;84.50
75621;DHT22;64574;48.506;-2.750;2022-11-20T03:41:28;9.20;84.90
75621;DHT22;64574;48.506;-2.750;2022-11-20T03:43:59;9.20;85.10
75621;DHT22;64574;48.506;-2.750;2022-11-20T03:46:26;9.20;85.40
75621;DHT22;64574;48.506;-2.750;2022-11-20T03:48:52;9.20;85.50
75621;DHT22;64574;48.506;-2.750;2022-11-20T03:51:47;9.20;85.50
75621;DHT22;64574;48.506;-2.750;2022-11-20T03:54:12;9.10;85.90
75621;DHT22;64574;48.506;-2.750;2022-11-20T03:56:38;9.20;85.70
75621;DHT22;64574;48.506;-2.750;2022-11-20T03:59:05;9.20;85.40
75621;DHT22;64574;48.506;-2.750;2022-11-20T04:01:35;9.20;85.70
75621;DHT22;64574;48.506;-2.750;2022-11-20T04:04:02;9.20;85.50
75621;DHT22;64574;48.506;-2.750;2022-11-20T04:06:30;9.20;85.60
75621;DHT22;64574;48.506;-2.750;2022-11-20T04:08:58;9.20;85.70
75621;DHT22;64574;48.506;-2.750;2022-11-20T04:11:26;9.20;85.60
75621;DHT22;64574;48.506;-2.750;2022-11-20T04:13:54;9.20;85.60
75621;DHT22;64574;48.506;-2.750;2022-11-20T04:16:22;9.20;85.40
75621;DHT22;64574;48.506;-2.750;2022-11-20T04:18:52;9.20;85.20
75621;DHT22;64574;48.506;-2.750;2022-11-20T04:21:18;9.30;85.30
75621;DHT22;64574;48.506;-2.750;2022-11-20T04:23:43;9.30;85.30
75621;DHT22;64574;48.506;-2.750;2022-11-20T04:26:11;9.30;85.40
75621;DHT22;64574;48.506;-2.750;2022-11-20T04:28:37;9.20;85.50
75621;DHT22;64574;48.506;-2.750;2022-11-20T04:31:09;9.30;85.60
75621;DHT22;64574;48.506;-2.750;2022-11-20T04:33:36;9.40;85.60
75621;DHT22;64574;48.506;-2.750;2022-11-20T04:36:11;9.40;85.50
75621;DHT22;64574;48.506;-2.750;2022-11-20T04:38:38;9.40;85.60
75621;DHT22;64574;48.506;-2.750;2022-11-20T04:41:05;9.40;85.50
75621;DHT22;64574;48.506;-2.750;2022-11-20T04:43:32;9.40;85.50
75621;DHT22;64574;48.506;-2.750;2022-11-20T04:45:59;9.40;85.40
75621;DHT22;64574;48.506;-2.750;2022-11-20T04:48:29;9.40;85.50
75621;DHT22;64574;48.506;-2.750;2022-11-20T04:50:55;9.40;85.60
75621;DHT22;64574;48.506;-2.750;2022-11-20T04:53:21;9.40;85.60
75621;DHT22;64574;48.506;-2.750;2022-11-20T04:55:48;9.40;85.60
75621;DHT22;64574;48.506;-2.750;2022-11-20T04:58:14;9.50;85.70
75621;DHT22;64574;48.506;-2.750;2022-11-20T05:00:40;9.50;85.70
75621;DHT22;64574;48.506;-2.750;2022-11-20T05:03:06;9.50;85.70
75621;DHT22;64574;48.506;-2.750;2022-11-20T05:05:33;9.50;85.70
75621;DHT22;64574;48.506;-2.750;2022-11-20T05:07:59;9.50;85.70
75621;DHT22;64574;48.506;-2.750;2022-11-20T05:10:25;9.50;85.80
75621;DHT22;64574;48.506;-2.750;2022-11-20T05:12:51;9.40;85.80
75621;DHT22;64574;48.506;-2.750;2022-11-20T05:15:17;9.40;86.00
75621;DHT22;64574;48.506;-2.750;2022-11-20T05:17:50;9.40;86.00
75621;DHT22;64574;48.506;-2.750;2022-11-20T05:20:16;9.40;86.30
75621;DHT22;64574;48.506;-2.750;2022-11-20T05:22:42;9.40;86.20
75621;DHT22;64574;48.506;-2.750;2022-11-20T05:25:08;9.40;86.40
75621;DHT22;64574;48.506;-2.750;2022-11-20T05:27:34;9.40;86.40
75621;DHT22;64574;48.506;-2.750;2022-11-20T05:29:59;9.40;86.40
75621;DHT22;64574;48.506;-2.750;2022-11-20T05:32:25;9.40;86.40
75621;DHT22;64574;48.506;-2.750;2022-11-20T05:34:54;9.50;86.20
75621;DHT22;64574;48.506;-2.750;2022-11-20T05:37:19;9.50;86.10
75621;DHT22;64574;48.506;-2.750;2022-11-20T05:39:45;9.40;86.10
75621;DHT22;64574;48.506;-2.750;2022-11-20T05:42:10;9.40;86.00
75621;DHT22;64574;48.506;-2.750;2022-11-20T05:44:54;9.40;86.10
75621;DHT22;64574;48.506;-2.750;2022-11-20T05:47:20;9.40;86.10
75621;DHT22;64574;48.506;-2.750;2022-11-20T05:49:46;9.40;86.10
75621;DHT22;64574;48.506;-2.750;2022-11-20T05:52:11;9.40;85.80
75621;DHT22;64574;48.506;-2.750;2022-11-20T05:54:37;9.50;85.80
75621;DHT22;64574;48.506;-2.750;2022-11-20T05:57:03;9.50;85.60
75621;DHT22;64574;48.506;-2.750;2022-11-20T05:59:28;9.50;85.60
75621;DHT22;64574;48.506;-2.750;2022-11-20T06:01:54;9.50;85.50
75621;DHT22;64574;48.506;-2.750;2022-11-20T06:04:20;9.60;85.50
75621;DHT22;64574;48.506;-2.750;2022-11-20T06:06:45;9.60;85.60
75621;DHT22;64574;48.506;-2.750;2022-11-20T06:09:11;9.60;85.50
75621;DHT22;64574;48.506;-2.750;2022-11-20T06:11:36;9.60;85.50
75621;DHT22;64574;48.506;-2.750;2022-11-20T06:14:02;9.60;85.40
75621;DHT22;64574;48.506;-2.750;2022-11-20T06:16:28;9.50;85.40
75621;DHT22;64574;48.506;-2.750;2022-11-20T06:18:53;9.50;85.40
75621;DHT22;64574;48.506;-2.750;2022-11-20T06:21:20;9.50;85.50
75621;DHT22;64574;48.506;-2.750;2022-11-20T06:23:47;9.50;85.50
75621;DHT22;64574;48.506;-2.750;2022-11-20T06:26:18;9.40;85.50
75621;DHT22;64574;48.506;-2.750;2022-11-20T06:28:44;9.40;85.50
75621;DHT22;64574;48.506;-2.750;2022-11-20T06:31:12;9.40;85.40
75621;DHT22;64574;48.506;-2.750;2022-11-20T06:33:39;9.40;85.50
75621;DHT22;64574;48.506;-2.750;2022-11-20T06:36:04;9.40;85.50
75621;DHT22;64574;48.506;-2.750;2022-11-20T06:38:30;9.40;85.30
75621;DHT22;64574;48.506;-2.750;2022-11-20T06:40:56;9.40;85.30
75621;DHT22;64574;48.506;-2.750;2022-11-20T06:43:22;9.40;85.40
75621;DHT22;64574;48.506;-2.750;2022-11-20T06:45:56;9.40;85.30
75621;DHT22;64574;48.506;-2.750;2022-11-20T06:48:23;9.30;85.30
75621;DHT22;64574;48.506;-2.750;2022-11-20T06:50:49;9.30;85.10
75621;DHT22;64574;48.506;-2.750;2022-11-20T06:53:15;9.30;85.10
75621;DHT22;64574;48.506;-2.750;2022-11-20T06:55:45;9.20;85.00
75621;DHT22;64574;48.506;-2.750;2022-11-20T06:58:11;9.20;84.70
75621;DHT22;64574;48.506;-2.750;2022-11-20T07:00:37;9.20;84.70
75621;DHT22;64574;48.506;-2.750;2022-11-20T07:03:04;9.20;84.60
75621;DHT22;64574;48.506;-2.750;2022-11-20T07:05:29;9.20;84.40
75621;DHT22;64574;48.506;-2.750;2022-11-20T07:07:56;9.00;84.30
75621;DHT22;64574;48.506;-2.750;2022-11-20T07:10:23;9.00;84.20
75621;DHT22;64574;48.506;-2.750;2022-11-20T07:12:53;9.00;84.00
75621;DHT22;64574;48.506;-2.750;2022-11-20T07:15:23;9.00;83.80
75621;DHT22;64574;48.506;-2.750;2022-11-20T07:17:51;9.00;83.70
75621;DHT22;64574;48.506;-2.750;2022-11-20T07:20:17;9.00;83.30
75621;DHT22;64574;48.506;-2.750;2022-11-20T07:22:43;9.00;83.30
75621;DHT22;64574;48.506;-2.750;2022-11-20T07:25:09;9.10;83.00
75621;DHT22;64574;48.506;-2.750;2022-11-20T07:27:35;9.00;82.70
75621;DHT22;64574;48.506;-2.750;2022-11-20T07:30:02;9.00;82.60
75621;DHT22;64574;48.506;-2.750;2022-11-20T07:32:27;9.00;82.60
75621;DHT22;64574;48.506;-2.750;2022-11-20T07:34:53;8.90;82.70
75621;DHT22;64574;48.506;-2.750;2022-11-20T07:37:19;9.00;82.50
75621;DHT22;64574;48.506;-2.750;2022-11-20T07:39:44;9.00;82.30
75621;DHT22;64574;48.506;-2.750;2022-11-20T07:42:10;8.90;82.20
75621;DHT22;64574;48.506;-2.750;2022-11-20T07:44:38;8.90;82.00
75621;DHT22;64574;48.506;-2.750;2022-11-20T07:47:03;8.80;81.80
75621;DHT22;64574;48.506;-2.750;2022-11-20T07:49:29;8.80;81.60
75621;DHT22;64574;48.506;-2.750;2022-11-20T07:51:55;8.90;81.20
75621;DHT22;64574;48.506;-2.750;2022-11-20T07:54:21;8.90;80.90
75621;DHT22;64574;48.506;-2.750;2022-11-20T07:56:50;8.90;80.70
75621;DHT22;64574;48.506;-2.750;2022-11-20T07:59:16;9.00;80.20
75621;DHT22;64574;48.506;-2.750;2022-11-20T08:01:42;9.00;80.10
75621;DHT22;64574;48.506;-2.750;2022-11-20T08:04:08;9.00;79.80
75621;DHT22;64574;48.506;-2.750;2022-11-20T08:06:34;9.00;79.80
75621;DHT22;64574;48.506;-2.750;2022-11-20T08:09:00;8.90;79.90
75621;DHT22;64574;48.506;-2.750;2022-11-20T08:11:26;9.00;79.60
75621;DHT22;64574;48.506;-2.750;2022-11-20T08:14:10;9.00;79.40
75621;DHT22;64574;48.506;-2.750;2022-11-20T08:16:49;9.00;79.00
75621;DHT22;64574;48.506;-2.750;2022-11-20T08:19:16;9.00;79.10
75621;DHT22;64574;48.506;-2.750;2022-11-20T08:21:43;9.00;78.70
75621;DHT22;64574;48.506;-2.750;2022-11-20T08:24:09;9.10;78.70
75621;DHT22;64574;48.506;-2.750;2022-11-20T08:26:36;9.20;78.70
75621;DHT22;64574;48.506;-2.750;2022-11-20T08:29:03;9.20;78.60
75621;DHT22;64574;48.506;-2.750;2022-11-20T08:31:29;9.20;78.60
75621;DHT22;64574;48.506;-2.750;2022-11-20T08:33:55;9.20;78.60
75621;DHT22;64574;48.506;-2.750;2022-11-20T08:36:22;9.20;78.50
75621;DHT22;64574;48.506;-2.750;2022-11-20T08:38:52;9.20;78.70
75621;DHT22;64574;48.506;-2.750;2022-11-20T08:41:18;9.20;78.80
75621;DHT22;64574;48.506;-2.750;2022-11-20T08:43:51;9.20;78.90
75621;DHT22;64574;48.506;-2.750;2022-11-20T08:46:17;9.20;78.90
75621;DHT22;64574;48.506;-2.750;2022-11-20T08:48:43;9.20;78.80
75621;DHT22;64574;48.506;-2.750;2022-11-20T08:51:10;9.20;79.10
75621;DHT22;64574;48.506;-2.750;2022-11-20T08:53:35;9.20;79.00
75621;DHT22;64574;48.506;-2.750;2022-11-20T08:56:01;9.20;79.00
75621;DHT22;64574;48.506;-2.750;2022-11-20T08:58:27;9.20;79.00
75621;DHT22;64574;48.506;-2.750;2022-11-20T09:00:52;9.20;79.10
75621;DHT22;64574;48.506;-2.750;2022-11-20T09:03:18;9.20;79.00
75621;DHT22;64574;48.506;-2.750;2022-11-20T09:05:44;9.20;79.00
75621;DHT22;64574;48.506;-2.750;2022-11-20T09:08:10;9.20;78.90
75621;DHT22;64574;48.506;-2.750;2022-11-20T09:10:36;9.30;78.80
75621;DHT22;64574;48.506;-2.750;2022-11-20T09:13:02;9.40;78.70
75621;DHT22;64574;48.506;-2.750;2022-11-20T09:15:27;9.30;78.70
75621;DHT22;64574;48.506;-2.750;2022-11-20T09:17:54;9.40;78.70
75621;DHT22;64574;48.506;-2.750;2022-11-20T09:20:20;9.40;78.50
75621;DHT22;64574;48.506;-2.750;2022-11-20T09:22:46;9.40;78.70
75621;DHT22;64574;48.506;-2.750;2022-11-20T09:25:11;9.40;78.70
75621;DHT22;64574;48.506;-2.750;2022-11-20T09:27:37;9.50;78.70
75621;DHT22;64574;48.506;-2.750;2022-11-20T09:30:03;9.50;78.70
75621;DHT22;64574;48.506;-2.750;2022-11-20T09:32:29;9.60;78.50
75621;DHT22;64574;48.506;-2.750;2022-11-20T09:34:55;9.70;78.30
75621;DHT22;64574;48.506;-2.750;2022-11-20T09:37:20;9.70;78.40
75621;DHT22;64574;48.506;-2.750;2022-11-20T09:39:46;9.70;78.10
75621;DHT22;64574;48.506;-2.750;2022-11-20T09:53:12;9.80;77.60
75621;DHT22;64574;48.506;-2.750;2022-11-20T09:55:39;9.80;77.50
75621;DHT22;64574;48.506;-2.750;2022-11-20T10:01:31;9.80;77.30
75621;DHT22;64574;48.506;-2.750;2022-11-20T10:04:02;9.80;77.50
75621;DHT22;64574;48.506;-2.750;2022-11-20T10:06:42;9.80;77.70
75621;DHT22;64574;48.506;-2.750;2022-11-20T10:12:03;9.90;77.70
75621;DHT22;64574;48.506;-2.750;2022-11-20T10:22:37;9.80;78.80
75621;DHT22;64574;48.506;-2.750;2022-11-20T10:25:16;9.80;79.00
75621;DHT22;64574;48.506;-2.750;2022-11-20T10:30:19;9.80;79.10
75621;DHT22;64574;48.506;-2.750;2022-11-20T10:32:49;9.90;79.10
75621;DHT22;64574;48.506;-2.750;2022-11-20T10:35:35;10.00;79.00
75621;DHT22;64574;48.506;-2.750;2022-11-20T10:38:13;10.00;78.70
75621;DHT22;64574;48.506;-2.750;2022-11-20T10:40:44;10.10;78.00
75621;DHT22;64574;48.506;-2.750;2022-11-20T10:43:32;10.20;77.80
75621;DHT22;64574;48.506;-2.750;2022-11-20T10:46:01;10.30;77.20
75621;DHT22;64574;48.506;-2.750;2022-11-20T10:48:31;10.30;76.60
75621;DHT22;64574;48.506;-2.750;2022-11-20T10:53:39;10.40;76.70
75621;DHT22;64574;48.506;-2.750;2022-11-20T10:56:17;10.40;76.80
75621;DHT22;64574;48.506;-2.750;2022-11-20T10:59:08;10.40;76.20
75621;DHT22;64574;48.506;-2.750;2022-11-20T11:01:43;10.40;75.80
75621;DHT22;64574;48.506;-2.750;2022-11-20T11:07:10;10.60;75.10
75621;DHT22;64574;48.506;-2.750;2022-11-20T11:10:00;10.60;75.50
75621;DHT22;64574;48.506;-2.750;2022-11-20T11:12:28;10.50;75.30
75621;DHT22;64574;48.506;-2.750;2022-11-20T11:14:55;10.50;75.40
75621;DHT22;64574;48.506;-2.750;2022-11-20T11:20:03;10.60;74.80
75621;DHT22;64574;48.506;-2.750;2022-11-20T11:22:31;10.60;74.20
75621;DHT22;64574;48.506;-2.750;2022-11-20T11:24:58;10.60;73.60
75621;DHT22;64574;48.506;-2.750;2022-11-20T11:27:24;10.60;73.80
75621;DHT22;64574;48.506;-2.750;2022-11-20T11:30:02;10.60;73.70
75621;DHT22;64574;48.506;-2.750;2022-11-20T11:32:29;10.60;74.00
75621;DHT22;64574;48.506;-2.750;2022-11-20T11:35:22;10.70;72.70
75621;DHT22;64574;48.506;-2.750;2022-11-20T11:37:48;10.70;72.50
75621;DHT22;64574;48.506;-2.750;2022-11-20T11:40:15;10.80;72.30
75621;DHT22;64574;48.506;-2.750;2022-11-20T11:42:49;10.80;72.90
75621;DHT22;64574;48.506;-2.750;2022-11-20T11:45:16;10.80;73.10
75621;DHT22;64574;48.506;-2.750;2022-11-20T11:57:59;11.30;70.80
75621;DHT22;64574;48.506;-2.750;2022-11-20T12:00:27;11.40;71.00
75621;DHT22;64574;48.506;-2.750;2022-11-20T12:05:51;11.20;70.00
75621;DHT22;64574;48.506;-2.750;2022-11-20T12:08:27;11.10;70.20
75621;DHT22;64574;48.506;-2.750;2022-11-20T12:11:20;11.10;69.90
75621;DHT22;64574;48.506;-2.750;2022-11-20T12:16:38;11.20;69.10
75621;DHT22;64574;48.506;-2.750;2022-11-20T12:19:10;11.20;69.10
75621;DHT22;64574;48.506;-2.750;2022-11-20T12:29:58;11.10;70.00
75621;DHT22;64574;48.506;-2.750;2022-11-20T12:43:19;11.20;69.10
75621;DHT22;64574;48.506;-2.750;2022-11-20T12:46:37;11.10;69.10
75621;DHT22;64574;48.506;-2.750;2022-11-20T12:57:50;11.40;66.60
75621;DHT22;64574;48.506;-2.750;2022-11-20T13:00:20;11.30;67.00
75621;DHT22;64574;48.506;-2.750;2022-11-20T13:08:43;11.50;64.70
75621;DHT22;64574;48.506;-2.750;2022-11-20T13:11:31;11.50;64.20
75621;DHT22;64574;48.506;-2.750;2022-11-20T13:19:55;11.60;63.60
75621;DHT22;64574;48.506;-2.750;2022-11-20T13:22:41;11.60;63.20
75621;DHT22;64574;48.506;-2.750;2022-11-20T13:25:09;11.50;63.70
75621;DHT22;64574;48.506;-2.750;2022-11-20T13:27:35;11.40;64.50
75621;DHT22;64574;48.506;-2.750;2022-11-20T13:30:14;11.40;64.80
75621;DHT22;64574;48.506;-2.750;2022-11-20T13:33:02;11.40;64.40
75621;DHT22;64574;48.506;-2.750;2022-11-20T13:35:35;11.50;64.80
75621;DHT22;64574;48.506;-2.750;2022-11-20T13:38:12;11.40;65.30
75621;DHT22;64574;48.506;-2.750;2022-11-20T13:40:54;11.50;64.50
75621;DHT22;64574;48.506;-2.750;2022-11-20T13:45:59;11.70;64.20
75621;DHT22;64574;48.506;-2.750;2022-11-20T13:48:29;11.70;64.00
75621;DHT22;64574;48.506;-2.750;2022-11-20T13:54:18;11.70;64.10
75621;DHT22;64574;48.506;-2.750;2022-11-20T14:02:02;11.70;64.20
75621;DHT22;64574;48.506;-2.750;2022-11-20T14:04:34;11.70;64.40
75621;DHT22;64574;48.506;-2.750;2022-11-20T14:07:01;11.70;64.10
75621;DHT22;64574;48.506;-2.750;2022-11-20T14:09:32;11.70;64.10
75621;DHT22;64574;48.506;-2.750;2022-11-20T14:11:58;11.70;64.20
75621;DHT22;64574;48.506;-2.750;2022-11-20T14:14:26;11.70;64.30
75621;DHT22;64574;48.506;-2.750;2022-11-20T14:17:03;11.70;64.20
75621;DHT22;64574;48.506;-2.750;2022-11-20T14:19:30;11.70;63.90
75621;DHT22;64574;48.506;-2.750;2022-11-20T14:22:10;11.70;63.70
75621;DHT22;64574;48.506;-2.750;2022-11-20T14:24:35;11.80;63.20
75621;DHT22;64574;48.506;-2.750;2022-11-20T14:27:01;11.80;63.40
75621;DHT22;64574;48.506;-2.750;2022-11-20T14:29:38;11.70;63.70
75621;DHT22;64574;48.506;-2.750;2022-11-20T14:32:04;11.70;63.40
75621;DHT22;64574;48.506;-2.750;2022-11-20T14:34:32;11.70;63.20
75621;DHT22;64574;48.506;-2.750;2022-11-20T14:37:00;11.70;63.30
75621;DHT22;64574;48.506;-2.750;2022-11-20T14:39:36;11.70;63.30
75621;DHT22;64574;48.506;-2.750;2022-11-20T14:42:20;11.70;63.60
75621;DHT22;64574;48.506;-2.750;2022-11-20T14:44:48;11.60;64.10
75621;DHT22;64574;48.506;-2.750;2022-11-20T14:47:21;11.60;64.10
75621;DHT22;64574;48.506;-2.750;2022-11-20T14:49:48;11.50;64.60
75621;DHT22;64574;48.506;-2.750;2022-11-20T14:52:18;11.50;64.90
75621;DHT22;64574;48.506;-2.750;2022-11-20T14:54:48;11.50;65.10
75621;DHT22;64574;48.506;-2.750;2022-11-20T14:57:32;11.50;65.30
75621;DHT22;64574;48.506;-2.750;2022-11-20T15:02:42;11.50;65.50
75621;DHT22;64574;48.506;-2.750;2022-11-20T15:05:08;11.50;65.10
75621;DHT22;64574;48.506;-2.750;2022-11-20T15:07:36;11.50;64.80
75621;DHT22;64574;48.506;-2.750;2022-11-20T15:10:05;11.50;65.20
75621;DHT22;64574;48.506;-2.750;2022-11-20T15:12:33;11.50;64.70
75621;DHT22;64574;48.506;-2.750;2022-11-20T15:15:01;11.50;64.80
75621;DHT22;64574;48.506;-2.750;2022-11-20T15:17:28;11.50;65.00
75621;DHT22;64574;48.506;-2.750;2022-11-20T15:19:55;11.40;65.10
75621;DHT22;64574;48.506;-2.750;2022-11-20T15:22:21;11.30;65.30
75621;DHT22;64574;48.506;-2.750;2022-11-20T15:24:46;11.30;65.50
75621;DHT22;64574;48.506;-2.750;2022-11-20T15:27:12;11.20;65.60
75621;DHT22;64574;48.506;-2.750;2022-11-20T15:29:38;11.20;65.70
75621;DHT22;64574;48.506;-2.750;2022-11-20T15:32:03;11.10;65.90
75621;DHT22;64574;48.506;-2.750;2022-11-20T15:34:29;11.10;66.00
75621;DHT22;64574;48.506;-2.750;2022-11-20T15:36:55;11.10;66.40
75621;DHT22;64574;48.506;-2.750;2022-11-20T15:39:21;11.00;66.40
75621;DHT22;64574;48.506;-2.750;2022-11-20T15:41:46;11.00;66.60
75621;DHT22;64574;48.506;-2.750;2022-11-20T15:44:12;11.00;66.70
75621;DHT22;64574;48.506;-2.750;2022-11-20T15:46:40;10.90;66.90
75621;DHT22;64574;48.506;-2.750;2022-11-20T15:49:15;10.90;67.20
75621;DHT22;64574;48.506;-2.750;2022-11-20T15:51:44;10.90;67.40
75621;DHT22;64574;48.506;-2.750;2022-11-20T15:54:16;10.90;67.70
75621;DHT22;64574;48.506;-2.750;2022-11-20T15:56:43;10.80;68.20
75621;DHT22;64574;48.506;-2.750;2022-11-20T15:59:09;10.80;68.80
75621;DHT22;64574;48.506;-2.750;2022-11-20T16:01:35;10.80;69.10
75621;DHT22;64574;48.506;-2.750;2022-11-20T16:04:01;10.80;69.30
75621;DHT22;64574;48.506;-2.750;2022-11-20T16:06:27;10.80;69.50
75621;DHT22;64574;48.506;-2.750;2022-11-20T16:08:52;10.70;69.80
75621;DHT22;64574;48.506;-2.750;2022-11-20T16:11:18;10.70;70.10
75621;DHT22;64574;48.506;-2.750;2022-11-20T16:13:44;10.70;70.30
75621;DHT22;64574;48.506;-2.750;2022-11-20T16:16:32;10.70;70.50
75621;DHT22;64574;48.506;-2.750;2022-11-20T16:18:58;10.60;70.70
75621;DHT22;64574;48.506;-2.750;2022-11-20T16:21:25;10.60;70.90
75621;DHT22;64574;48.506;-2.750;2022-11-20T16:24:01;10.60;71.00
75621;DHT22;64574;48.506;-2.750;2022-11-20T16:26:27;10.50;71.20
75621;DHT22;64574;48.506;-2.750;2022-11-20T16:28:53;10.50;71.30
75621;DHT22;64574;48.506;-2.750;2022-11-20T16:31:20;10.50;71.40
75621;DHT22;64574;48.506;-2.750;2022-11-20T16:33:53;10.50;71.50
75621;DHT22;64574;48.506;-2.750;2022-11-20T16:36:21;10.50;71.80
75621;DHT22;64574;48.506;-2.750;2022-11-20T16:38:52;10.50;71.90
75621;DHT22;64574;48.506;-2.750;2022-11-20T16:41:18;10.40;72.00
75621;DHT22;64574;48.506;-2.750;2022-11-20T16:43:48;10.40;72.20
75621;DHT22;64574;48.506;-2.750;2022-11-20T16:46:16;10.40;72.40
75621;DHT22;64574;48.506;-2.750;2022-11-20T16:48:41;10.40;72.30
75621;DHT22;64574;48.506;-2.750;2022-11-20T16:51:09;10.40;72.40
75621;DHT22;64574;48.506;-2.750;2022-11-20T16:53:35;10.30;72.70
75621;DHT22;64574;48.506;-2.750;2022-11-20T16:56:10;10.30;72.70
75621;DHT22;64574;48.506;-2.750;2022-11-20T16:58:37;10.30;72.90
75621;DHT22;64574;48.506;-2.750;2022-11-20T17:01:11;10.30;72.90
75621;DHT22;64574;48.506;-2.750;2022-11-20T17:03:37;10.30;73.10
75621;DHT22;64574;48.506;-2.750;2022-11-20T17:06:17;10.30;73.00
75621;DHT22;64574;48.506;-2.750;2022-11-20T17:08:44;10.20;73.20
75621;DHT22;64574;48.506;-2.750;2022-11-20T17:11:12;10.20;73.20
75621;DHT22;64574;48.506;-2.750;2022-11-20T17:13:38;10.20;73.30
75621;DHT22;64574;48.506;-2.750;2022-11-20T17:16:09;10.20;73.40
75621;DHT22;64574;48.506;-2.750;2022-11-20T17:18:35;10.20;73.60
75621;DHT22;64574;48.506;-2.750;2022-11-20T17:21:01;10.10;73.60
75621;DHT22;64574;48.506;-2.750;2022-11-20T17:23:35;10.10;73.90
75621;DHT22;64574;48.506;-2.750;2022-11-20T17:26:15;10.10;73.90